Latest Weather Observations for Century Mine

IDQ60801

Issued at 11:02 am EST Saturday 27 August 2016 (issued every 30 minutes, with the page automatically refreshed every 10 minutes)

About weather observations | Map of weather stations | Latest weather observations for QLD | Other Formats
Station Details ID: 029167 Name: CENTURY MINE Lat: -18.76 Lon: 138.71 Height: 126.8 m
Data from the previous 72 hours. | See also: Recent months at Century Mine
Date/Time
EST
Temp
°C
App
Temp
°C
Dew
Point
°C
Rel
Hum
%
Delta-T
°C
Wind Press
QNH
hPa
Press
MSL
hPa
Rain since
9am
mm
Dir  Spd
km/h
Gust
km/h
Spd
kts
Gust
kts
27/11:00am 22.5 16.6 -0.9 21 10.4 ESE 20 35 11 19 1021.6 1021.1 0.0
27/10:30am 21.4 15.1 -1.2 22 9.9 ESE 22 35 12 19 1021.9 1021.4 0.0
27/10:00am 20.5 13.9 -0.7 24 9.3 ESE 24 43 13 23 1022.0 1021.5 0.0
27/09:30am 19.6 12.2 -0.4 26 8.8 ESE 28 43 15 23 1022.0 1021.5 0.0
27/09:00am 18.7 13.0 0.3 29 8.1 ESE 20 35 11 19 1021.8 1021.3 0.0
27/08:30am 17.0 12.9 2.2 37 6.7 ESE 13 20 7 11 1021.4 1020.9 0.0
27/08:00am 14.1 12.0 4.1 51 4.6 SE 4 9 2 5 1021.1 1020.6 0.0
27/07:59am 13.9 11.9 4.2 52 4.5 SSE 4 9 2 5 1021.1 1020.6 0.0
27/07:30am 8.9 7.6 4.1 72 2.1 CALM 0 0 0 0 1020.8 1020.3 0.0
27/07:00am 8.1 6.6 3.0 70 2.2 CALM 0 0 0 0 1020.6 1020.1 0.0
27/06:30am 8.5 6.9 2.7 67 2.5 CALM 0 0 0 0 1020.3 1019.8 0.0
27/06:00am 9.4 8.0 3.6 67 2.5 CALM 0 0 0 0 1020.0 1019.5 0.0
27/05:30am 9.3 6.5 3.1 65 2.7 S 7 11 4 6 1019.6 1019.2 0.0
27/05:00am 8.9 7.3 2.7 65 2.6 CALM 0 0 0 0 1019.3 1018.9 0.0
27/04:30am 9.8 7.5 2.9 62 3.0 S 4 6 2 3 1019.3 1018.9 0.0
27/04:00am 10.4 7.5 2.5 58 3.4 S 7 9 4 5 1019.4 1019.0 0.0
27/03:30am 11.6 8.5 1.5 50 4.3 S 7 9 4 5 1019.3 1018.9 0.0
27/03:00am 11.9 8.9 2.1 51 4.2 S 7 9 4 5 1019.3 1018.9 0.0
27/02:30am 12.1 9.1 2.3 51 4.3 SSE 7 9 4 5 1019.3 1018.9 0.0
27/02:00am 11.2 8.0 2.8 56 3.7 S 9 9 5 5 1019.4 1019.0 0.0
27/01:30am 11.8 8.8 2.0 51 4.2 SE 7 7 4 4 1019.7 1019.3 0.0
27/01:00am 12.7 10.8 0.8 44 5.0 CALM 0 0 0 0 1019.8 1019.4 0.0
27/12:30am 14.0 10.8 1.0 41 5.6 SSE 7 9 4 5 1019.8 1019.4 0.0
27/12:00am 14.5 11.1 1.8 42 5.6 S 9 11 5 6 1019.8 1019.4 0.0
 
Date/Time
EST
Temp
°C
App
Temp
°C
Dew
Point
°C
Rel
Hum
%
Delta-T
°C
Wind Press
QNH
hPa
Press
MSL
hPa
Rain since
9am
mm
Dir  Spd
km/h
Gust
km/h
Spd
kts
Gust
kts
26/11:30pm 14.3 11.0 2.5 45 5.3 S 9 11 5 6 1019.8 1019.4 0.0
26/11:00pm 13.4 10.5 2.6 48 4.8 S 7 9 4 5 1019.7 1019.3 0.0
26/10:30pm 14.0 10.7 2.6 46 5.1 S 9 11 5 6 1019.3 1018.9 0.0
26/10:00pm 13.0 10.3 3.7 53 4.2 SSE 7 9 4 5 1019.3 1018.9 0.0
26/09:30pm 14.1 11.2 2.4 45 5.2 SSE 7 7 4 4 1019.1 1018.7 0.0
26/09:00pm 14.9 11.9 2.1 42 5.7 SSE 7 9 4 5 1019.0 1018.6 0.0
26/08:30pm 15.5 12.4 1.3 38 6.2 SSE 7 9 4 5 1018.9 1018.5 0.0
26/08:00pm 16.5 13.3 0.6 34 6.9 SE 7 9 4 5 1018.6 1018.2 0.0
26/07:30pm 18.9 15.4 -1.0 26 8.6 SE 7 9 4 5 1018.1 1017.7 0.0
26/07:00pm 20.8 16.7 -3.0 20 10.0 SSE 9 11 5 6 1017.8 1017.4 0.0
26/06:30pm 22.1 18.4 -3.3 18 10.8 SSE 7 9 4 5 1017.5 1017.1 0.0
26/06:00pm 23.5 18.9 -3.7 16 11.6 SE 11 20 6 11 1017.2 1016.8 0.0
26/05:30pm 24.3 19.3 -4.0 15 12.1 SE 13 22 7 12 1017.0 1016.6 0.0
26/05:00pm 24.8 19.1 -3.6 15 12.2 SE 17 28 9 15 1016.8 1016.4 0.0
26/04:30pm 24.6 19.3 -3.7 15 12.2 SE 15 30 8 16 1016.8 1016.4 0.0
26/04:00pm 24.9 18.7 -3.5 15 12.3 SE 20 30 11 16 1016.9 1016.5 0.0
26/03:30pm 25.3 19.7 -3.2 15 12.5 SSE 17 28 9 15 1016.9 1016.5 0.0
26/03:00pm 25.3 19.0 -4.1 14 12.6 SSE 20 33 11 18 1017.2 1016.8 0.0
26/02:30pm 25.5 19.4 -3.9 14 12.7 SSE 19 33 10 18 1017.5 1017.1 0.0
26/02:00pm 25.1 18.9 -5.2 13 12.7 SSE 19 33 10 18 1017.7 1017.3 0.0
26/01:30pm 25.3 19.2 -4.1 14 12.6 SE 19 28 10 15 1018.0 1017.6 0.0
26/01:00pm 24.4 18.3 -3.9 15 12.1 SSE 19 33 10 18 1018.5 1018.1 0.0
26/12:30pm 23.6 17.2 -4.5 15 11.8 SE 20 35 11 19 1019.2 1018.8 0.0
26/12:00pm 23.7 17.4 -4.4 15 11.8 SSE 20 35 11 19 1019.6 1019.2 0.0
26/11:30am 23.1 18.8 -1.8 19 11.0 SE 11 17 6 9 1020.2 1019.7 0.0
26/11:00am 22.3 17.4 -0.4 22 10.2 SE 15 26 8 14 1020.8 1020.3 0.0
26/10:30am 21.3 15.5 -1.3 22 9.9 SSE 19 32 10 17 1021.1 1020.6 0.0
26/10:00am 20.6 15.8 -0.1 25 9.2 SE 15 20 8 11 1021.0 1020.5 0.0
26/09:30am 19.8 14.6 -0.2 26 8.8 SSE 17 26 9 14 1021.1 1020.6 0.0
26/09:00am 18.4 14.5 1.0 31 7.8 ESE 11 20 6 11 1021.0 1020.5 0.0
26/08:30am 17.2 13.8 1.6 35 7.0 SSE 9 17 5 9 1020.7 1020.2 0.0
26/08:00am 14.2 12.2 4.5 52 4.5 S 4 7 2 4 1020.4 1019.9 0.0
26/07:30am 10.0 7.4 4.0 66 2.7 SSW 7 9 4 5 1020.3 1019.8 0.0
26/07:00am 9.1 6.3 3.1 66 2.6 SSW 7 9 4 5 1019.8 1019.4 0.0
26/06:30am 9.6 6.8 2.9 63 2.9 SSW 7 7 4 4 1019.4 1019.0 0.0
26/06:00am 10.9 8.1 2.2 55 3.7 S 6 7 3 4 1019.2 1018.8 0.0
26/05:30am 11.9 8.6 2.6 53 4.1 S 9 11 5 6 1019.1 1018.7 0.0
26/05:00am 12.4 9.1 2.6 51 4.3 S 9 13 5 7 1018.8 1018.4 0.0
26/04:30am 12.7 9.7 1.7 47 4.8 S 7 9 4 5 1018.7 1018.3 0.0
26/04:00am 13.7 9.9 2.0 45 5.1 S 11 15 6 8 1018.7 1018.3 0.0
26/03:30am 14.1 10.0 2.0 44 5.3 S 13 17 7 9 1018.5 1018.1 0.0
26/03:00am 14.3 10.5 1.9 43 5.4 S 11 20 6 11 1018.5 1018.1 0.0
26/02:30am 14.7 10.9 1.9 42 5.7 S 11 17 6 9 1018.5 1018.1 0.0
26/02:00am 15.0 10.8 1.5 40 5.9 S 13 19 7 10 1018.6 1018.2 0.0
26/01:30am 15.3 11.0 1.1 38 6.2 S 13 20 7 11 1018.6 1018.2 0.0
26/01:00am 15.6 11.4 1.4 38 6.2 S 13 19 7 10 1018.5 1018.1 0.0
26/12:30am 15.8 11.8 0.8 36 6.5 S 11 15 6 8 1018.4 1018.0 0.0
26/12:00am 16.2 12.2 0.3 34 6.9 S 11 17 6 9 1018.2 1017.8 0.0
 
Date/Time
EST
Temp
°C
App
Temp
°C
Dew
Point
°C
Rel
Hum
%
Delta-T
°C
Wind Press
QNH
hPa
Press
MSL
hPa
Rain since
9am
mm
Dir  Spd
km/h
Gust
km/h
Spd
kts
Gust
kts
25/11:30pm 15.9 12.4 1.2 37 6.5 S 9 15 5 8 1018.1 1017.7 0.0
25/11:00pm 16.4 12.8 0.5 34 6.9 SSW 9 13 5 7 1017.9 1017.5 0.0
25/10:30pm 17.4 13.3 0.1 31 7.5 SSW 11 17 6 9 1017.7 1017.3 0.0
25/10:00pm 16.8 13.2 0.5 33 7.1 S 9 13 5 7 1017.4 1017.0 0.0
25/09:30pm 17.2 13.6 0.4 32 7.3 SSW 9 13 5 7 1017.2 1016.8 0.0
25/09:00pm 17.8 14.1 0.0 30 7.7 SSW 9 11 5 6 1016.9 1016.5 0.0
25/08:30pm 18.3 14.5 -0.5 28 8.1 SSW 9 13 5 7 1016.3 1015.8 0.0
25/08:00pm 19.0 15.2 -0.9 26 8.6 SSW 9 11 5 6 1015.8 1015.3 0.0
25/07:30pm 19.9 16.0 -1.2 24 9.1 SSW 9 13 5 7 1015.4 1014.9 0.0
25/07:00pm 20.8 16.9 -1.7 22 9.7 SSW 9 17 5 9 1014.9 1014.4 0.0
25/06:30pm 21.9 17.1 -2.7 19 10.5 SSW 13 19 7 10 1014.5 1014.0 0.0
25/06:00pm 23.1 17.9 -2.5 18 11.1 S 15 22 8 12 1014.1 1013.6 0.0
25/05:30pm 23.8 17.7 -3.5 16 11.7 SSW 19 28 10 15 1013.7 1013.2 0.0
25/05:00pm 24.5 18.6 -2.1 17 11.8 SSW 19 30 10 16 1013.4 1012.9 0.0
25/04:30pm 24.6 18.6 -2.9 16 12.0 S 19 30 10 16 1013.3 1012.8 0.0
25/04:00pm 24.9 18.8 -2.6 16 12.1 SSW 20 33 11 18 1013.4 1012.9 0.0
25/03:30pm 24.7 18.8 -2.0 17 11.9 SSW 19 35 10 19 1013.3 1012.8 0.0
25/03:00pm 25.1 19.9 -0.1 19 11.7 SSW 17 24 9 13 1013.5 1013.0 0.0
25/02:30pm 25.2 20.1 0.7 20 11.5 S 17 30 9 16 1013.9 1013.4 0.0
25/02:00pm 24.6 19.0 1.5 22 11.0 SSW 20 32 11 17 1014.4 1013.9 0.0
25/01:30pm 23.7 18.3 2.5 25 10.2 SSW 20 33 11 18 1014.9 1014.4 0.0
25/01:00pm 23.2 18.0 2.7 26 9.8 S 19 30 10 16 1015.3 1014.8 0.0
25/12:30pm 22.8 17.3 1.8 25 9.9 SSW 20 30 11 16 1015.6 1015.1 0.0
25/12:00pm 22.3 17.7 3.9 30 9.0 SSW 17 35 9 19 1016.2 1015.7 0.0
25/11:30am 22.3 18.4 5.3 33 8.5 S 15 26 8 14 1016.7 1016.3 0.0
25/11:00am 21.1 17.3 5.9 37 7.6 SSE 15 24 8 13 1017.4 1017.0 0.0
25/10:30am 20.1 16.5 6.8 42 6.8 S 15 22 8 12 1017.5 1017.1 0.0
25/10:00am 19.5 15.9 6.6 43 6.5 SSE 15 20 8 11 1017.6 1017.2 0.0
25/09:30am 19.3 15.3 6.8 44 6.3 SSE 17 22 9 12 1017.6 1017.2 0.0
25/09:00am 17.8 13.8 6.7 48 5.5 SSE 17 26 9 14 1017.2 1016.8 0.0
25/08:30am 17.1 13.3 7.5 53 4.9 SSE 17 24 9 13 1016.9 1016.5 0.0
25/08:00am 16.2 13.4 8.4 60 4.0 SSE 13 20 7 11 1016.7 1016.3 0.0
25/07:30am 14.8 13.4 9.0 68 3.0 S 6 11 3 6 1016.5 1016.0 0.0
25/07:00am 14.3 12.9 8.7 69 2.8 SSE 6 9 3 5 1016.0 1015.5 0.0
25/06:30am 14.8 12.6 9.2 69 2.9 S 11 17 6 9 1015.4 1014.9 0.0
25/06:00am 15.1 13.0 9.7 70 2.8 SSE 11 17 6 9 1015.0 1014.5 0.0
25/05:30am 15.5 13.0 9.8 69 3.0 SSE 13 20 7 11 1014.6 1014.1 0.0
25/05:00am 15.5 13.4 9.8 69 3.0 SSE 11 17 6 9 1014.4 1013.9 0.0
25/04:30am 15.8 13.4 9.9 68 3.1 S 13 20 7 11 1014.2 1013.7 0.0
25/04:00am 16.2 13.3 9.8 66 3.4 S 15 20 8 11 1014.1 1013.6 0.0
25/03:30am 16.4 14.0 10.0 66 3.4 S 13 20 7 11 1014.1 1013.6 0.0
25/03:00am 16.8 14.8 10.0 64 3.6 S 11 19 6 10 1014.2 1013.7 0.0
25/02:30am 16.8 14.8 10.2 65 3.5 S 11 20 6 11 1014.4 1013.9 0.0
25/02:00am 17.2 15.2 10.3 64 3.7 S 11 15 6 8 1014.6 1014.1 0.0
25/01:30am 17.6 15.7 10.5 63 3.8 S 11 17 6 9 1014.7 1014.2 0.0
25/01:00am 18.0 16.5 10.6 62 4.0 S 9 15 5 8 1014.8 1014.3 0.0
25/12:30am 18.6 17.1 10.7 60 4.3 S 9 13 5 7 1015.0 1014.5 0.0
25/12:00am 19.2 17.7 10.5 57 4.7 S 9 17 5 9 1014.8 1014.3 0.0
 
Date/Time
EST
Temp
°C
App
Temp
°C
Dew
Point
°C
Rel
Hum
%
Delta-T
°C
Wind Press
QNH
hPa
Press
MSL
hPa
Rain since
9am
mm
Dir  Spd
km/h
Gust
km/h
Spd
kts
Gust
kts
24/11:30pm 20.0 17.8 10.7 55 5.1 S 13 20 7 11 1014.5 1014.0 0.0
24/11:00pm 20.5 18.2 10.6 53 5.4 S 13 20 7 11 1014.5 1014.0 0.0
24/10:30pm 20.7 18.4 10.5 52 5.6 S 13 19 7 10 1014.2 1013.7 0.0
24/10:00pm 21.2 18.9 10.4 50 5.9 SSW 13 24 7 13 1014.0 1013.5 0.0
24/09:30pm 21.5 19.6 10.6 50 6.0 SSW 11 17 6 9 1013.8 1013.3 0.0
24/09:00pm 21.9 19.8 11.3 51 5.9 S 13 20 7 11 1013.4 1012.9 0.0
24/08:30pm 22.3 20.5 12.0 52 5.8 S 13 20 7 11 1012.8 1012.3 0.0
24/08:00pm 22.4 21.2 12.9 55 5.5 S 11 17 6 9 1012.6 1012.1 0.0
24/07:30pm 22.6 21.9 13.1 55 5.5 S 9 13 5 7 1012.3 1011.8 0.0
24/07:00pm 23.1 22.2 12.7 52 6.0 SSE 9 15 5 8 1011.8 1011.3 0.0
24/06:30pm 23.7 22.1 12.7 50 6.3 S 13 22 7 12 1011.2 1010.8 0.0
24/06:00pm 24.9 22.8 12.5 46 7.2 SSW 15 20 8 11 1010.9 1010.5 0.0
24/05:30pm 25.5 23.3 12.0 43 7.8 S 15 24 8 13 1010.4 1010.0 0.0
24/05:00pm 26.2 23.9 13.0 44 7.8 S 17 24 9 13 1009.9 1009.5 0.0
24/04:30pm 26.4 24.0 12.8 43 8.0 S 17 28 9 15 1009.6 1009.1 0.0
24/04:00pm 26.8 24.7 13.5 44 7.9 S 17 26 9 14 1009.6 1009.1 0.0
24/03:30pm 26.8 24.2 13.2 43 8.0 SSW 19 32 10 17 1009.3 1008.8 0.0
24/03:00pm 26.0 24.0 12.8 44 7.7 SSW 15 28 8 15 1009.5 1009.0 0.0
24/02:30pm 26.4 24.6 14.5 48 7.2 S 17 28 9 15 1010.0 1009.6 0.0
24/02:00pm 26.5 25.4 14.3 47 7.3 SSW 13 26 7 14 1010.4 1010.0 0.0
24/01:30pm 26.4 25.3 15.4 50 6.7 S 15 28 8 15 1010.7 1010.3 0.0
24/01:00pm 23.9 22.3 15.1 58 5.3 SSW 17 28 9 15 1011.2 1010.8 0.0
24/12:30pm 23.5 22.2 15.8 62 4.7 SSW 17 28 9 15 1011.5 1011.1 0.0
24/12:00pm 22.3 22.1 16.6 70 3.5 SSW 13 24 7 13 1012.2 1011.7 0.0
24/11:30am 20.7 19.8 15.9 74 2.9 S 15 26 8 14 1012.7 1012.2 0.0

Other Formats:

Comma delimited format used in spreadsheet applications
http://www.bom.gov.au/fwo/IDQ60801/IDQ60801.94261.axf

JavaScript Object Notation format (JSON) in row-major order
http://www.bom.gov.au/fwo/IDQ60801/IDQ60801.94261.json